createdAt,value
2018-10-05T00:00:54.312Z,14.70
2018-10-05T00:03:22.958Z,15.30
2018-10-05T00:05:51.630Z,16.73
2018-10-05T00:08:20.126Z,18.97
2018-10-05T00:10:48.510Z,17.33
2018-10-05T00:13:16.878Z,18.30
2018-10-05T00:15:45.278Z,17.83
2018-10-05T00:18:13.630Z,16.03
2018-10-05T00:20:42.010Z,14.90
2018-10-05T00:23:10.374Z,14.43
2018-10-05T00:25:38.775Z,17.30
2018-10-05T00:28:07.193Z,18.50
2018-10-05T00:30:35.633Z,13.97
2018-10-05T00:33:04.014Z,17.20
2018-10-05T00:35:32.427Z,14.03
2018-10-05T00:38:00.848Z,15.17
2018-10-05T00:40:29.234Z,17.63
2018-10-05T00:42:57.614Z,18.23
2018-10-05T00:45:26.031Z,19.17
2018-10-05T00:47:54.389Z,20.70
2018-10-05T00:50:22.786Z,19.00
2018-10-05T00:52:51.262Z,18.27
2018-10-05T00:55:19.606Z,17.77
2018-10-05T00:57:47.986Z,18.93
2018-10-05T01:00:16.362Z,17.73
2018-10-05T01:02:44.725Z,19.33
2018-10-05T01:05:13.122Z,19.20
2018-10-05T01:07:41.532Z,14.93
2018-10-05T01:10:09.928Z,21.23
2018-10-05T01:12:38.316Z,17.10
2018-10-05T01:15:06.815Z,20.47
2018-10-05T01:17:35.139Z,17.93
2018-10-05T01:20:03.600Z,16.27
2018-10-05T01:22:31.977Z,22.93
2018-10-05T01:25:00.399Z,19.50
2018-10-05T01:27:28.802Z,16.70
2018-10-05T01:29:57.518Z,15.57
2018-10-05T01:32:25.917Z,14.50
2018-10-05T01:34:54.311Z,16.10
2018-10-05T01:37:22.698Z,15.83
2018-10-05T01:39:51.179Z,17.47
2018-10-05T01:42:19.531Z,17.20
2018-10-05T01:44:47.874Z,16.00
2018-10-05T01:47:16.235Z,16.90
2018-10-05T01:49:44.550Z,17.40
2018-10-05T01:52:12.992Z,19.77
2018-10-05T01:54:41.339Z,17.50
2018-10-05T01:57:09.699Z,15.30
2018-10-05T01:59:38.125Z,17.33
2018-10-05T02:02:06.435Z,16.60
2018-10-05T02:04:34.883Z,14.47
2018-10-05T02:07:03.280Z,18.60
2018-10-05T02:09:31.619Z,13.60
2018-10-05T02:11:59.985Z,17.90
2018-10-05T02:14:28.331Z,14.93
2018-10-05T02:16:56.687Z,17.10
2018-10-05T02:19:25.065Z,21.67
2018-10-05T02:21:53.414Z,13.07
2018-10-05T02:24:21.795Z,13.43
2018-10-05T02:26:50.234Z,15.17
2018-10-05T02:29:18.587Z,15.70
2018-10-05T02:31:46.987Z,14.80
2018-10-05T02:34:15.338Z,17.57
2018-10-05T02:36:43.739Z,15.13
2018-10-05T02:39:13.075Z,15.93
2018-10-05T02:41:42.035Z,14.20
2018-10-05T02:44:10.380Z,19.60
2018-10-05T02:46:38.799Z,17.03
2018-10-05T02:49:07.193Z,17.43
2018-10-05T02:51:35.596Z,15.97
2018-10-05T02:54:04.010Z,12.77
2018-10-05T02:56:32.391Z,17.80
2018-10-05T02:59:00.766Z,12.40
2018-10-05T03:01:40.343Z,13.13
2018-10-05T03:04:08.723Z,13.97
2018-10-05T03:06:37.106Z,14.93
2018-10-05T03:09:06.380Z,12.93
2018-10-05T03:11:34.787Z,13.20
2018-10-05T03:14:03.393Z,16.63
2018-10-05T03:16:31.829Z,14.83
2018-10-05T03:19:00.202Z,15.10
2018-10-05T03:21:28.581Z,15.27
2018-10-05T03:23:56.944Z,14.53
2018-10-05T03:26:25.310Z,19.50
2018-10-05T03:28:53.717Z,15.67
2018-10-05T03:31:22.178Z,20.07
2018-10-05T03:33:50.574Z,12.80
2018-10-05T03:36:18.974Z,17.23
2018-10-05T03:38:47.355Z,13.93
2018-10-05T03:41:15.692Z,13.23
2018-10-05T03:43:44.075Z,11.87
2018-10-05T03:46:12.446Z,16.87
2018-10-05T03:48:40.819Z,13.17
2018-10-05T03:51:09.234Z,16.17
2018-10-05T03:53:37.601Z,13.50
2018-10-05T03:56:06.023Z,20.03
2018-10-05T03:58:34.398Z,12.80
2018-10-05T04:01:02.787Z,16.50
2018-10-05T04:03:31.190Z,12.37
2018-10-05T04:05:59.589Z,17.30
2018-10-05T04:08:28.023Z,14.33
2018-10-05T04:10:56.454Z,12.63
2018-10-05T04:13:24.832Z,13.10
2018-10-05T04:15:53.188Z,15.93
2018-10-05T04:18:21.600Z,13.40
2018-10-05T04:20:49.965Z,14.47
2018-10-05T04:23:18.380Z,13.33
2018-10-05T04:25:46.736Z,13.40
2018-10-05T04:28:15.137Z,14.53
2018-10-05T04:30:43.518Z,15.83
2018-10-05T04:33:11.931Z,12.33
2018-10-05T04:35:40.386Z,15.47
2018-10-05T04:38:08.809Z,14.50
2018-10-05T04:40:37.267Z,13.70
2018-10-05T04:43:05.864Z,14.33
2018-10-05T04:45:34.287Z,19.47
2018-10-05T04:48:02.716Z,17.70
2018-10-05T04:50:31.190Z,16.97
2018-10-05T04:52:59.788Z,19.50
2018-10-05T04:55:28.218Z,15.63
2018-10-05T04:58:03.282Z,16.53
2018-10-05T05:00:31.703Z,15.07
2018-10-05T05:03:00.754Z,17.87
2018-10-05T05:05:29.821Z,12.97
2018-10-05T05:07:58.243Z,16.33
2018-10-05T05:10:27.610Z,13.03
2018-10-05T05:12:56.123Z,16.87
2018-10-05T05:15:24.741Z,15.57
2018-10-05T05:17:53.319Z,15.33
2018-10-05T05:20:21.767Z,13.37
2018-10-05T05:22:50.256Z,16.57
2018-10-05T05:25:18.674Z,15.07
2018-10-05T05:27:47.072Z,13.07
2018-10-05T05:30:15.668Z,14.20
2018-10-05T05:32:44.081Z,15.00
2018-10-05T05:35:12.532Z,14.20
2018-10-05T05:37:41.009Z,13.43
2018-10-05T05:40:10.055Z,12.50
2018-10-05T05:42:38.459Z,15.03
2018-10-05T05:45:06.999Z,15.63
2018-10-05T05:47:35.456Z,12.40
2018-10-05T05:50:03.932Z,15.03
2018-10-05T05:52:32.414Z,13.17
2018-10-05T05:55:00.884Z,13.70
2018-10-05T05:57:29.388Z,15.80
2018-10-05T05:59:57.812Z,12.63
2018-10-05T06:02:26.428Z,13.00
2018-10-05T06:04:55.502Z,16.13
2018-10-05T06:07:25.279Z,14.63
2018-10-05T06:09:53.894Z,13.90
2018-10-05T06:12:22.396Z,19.77
2018-10-05T06:14:50.812Z,13.50
2018-10-05T06:17:20.203Z,19.73
2018-10-05T06:19:48.679Z,14.17
2018-10-05T06:22:17.271Z,15.63
2018-10-05T06:24:45.727Z,17.17
2018-10-05T06:27:14.264Z,16.37
2018-10-05T06:29:42.689Z,15.77
2018-10-05T06:32:11.264Z,15.20
2018-10-05T06:34:39.733Z,18.63
2018-10-05T06:37:08.207Z,16.80
2018-10-05T06:39:36.822Z,19.10
2018-10-05T06:42:05.327Z,17.57
2018-10-05T06:44:35.981Z,18.00
2018-10-05T06:47:04.467Z,18.20
2018-10-05T06:49:32.883Z,20.27
2018-10-05T06:52:01.582Z,18.43
2018-10-05T06:54:30.045Z,16.17
2018-10-05T06:56:58.595Z,19.40
2018-10-05T06:59:27.013Z,20.33
2018-10-05T07:01:55.525Z,24.30
2018-10-05T07:04:23.956Z,28.77
2018-10-05T07:06:52.405Z,20.00
2018-10-05T07:09:20.880Z,19.13
2018-10-05T07:11:49.338Z,19.83
2018-10-05T07:14:17.764Z,19.47
2018-10-05T07:16:46.201Z,18.37
2018-10-05T07:19:14.626Z,17.20
2018-10-05T07:21:43.118Z,13.10
2018-10-05T07:24:11.585Z,18.63
2018-10-05T07:26:40.359Z,17.97
2018-10-05T07:29:08.946Z,14.97
2018-10-05T07:31:37.430Z,14.67
2018-10-05T07:34:06.399Z,19.50
2018-10-05T07:36:35.438Z,15.40
2018-10-05T07:39:05.281Z,13.93
2018-10-05T07:41:33.656Z,20.93
2018-10-05T07:44:02.056Z,18.43
2018-10-05T07:46:30.510Z,18.93
2018-10-05T07:48:58.900Z,16.00
2018-10-05T07:51:27.395Z,16.70
2018-10-05T07:53:55.798Z,19.87
2018-10-05T07:56:24.950Z,19.80
2018-10-05T07:58:53.425Z,18.53
2018-10-05T08:01:21.873Z,19.43
2018-10-05T08:03:50.722Z,29.23
2018-10-05T08:06:19.146Z,25.40
2018-10-05T08:08:47.584Z,21.93
2018-10-05T08:11:16.168Z,24.73
2018-10-05T08:13:44.601Z,22.87
2018-10-05T08:16:13.073Z,24.90
2018-10-05T08:18:41.704Z,23.40
2018-10-05T08:21:10.121Z,21.63
2018-10-05T08:23:38.631Z,19.40
2018-10-05T08:26:07.115Z,17.03
2018-10-05T08:28:35.632Z,22.67
2018-10-05T08:31:04.107Z,15.23
2018-10-05T08:33:32.538Z,18.77
2018-10-05T08:36:00.922Z,16.40
2018-10-05T08:38:29.367Z,16.47
2018-10-05T08:40:57.767Z,18.13
2018-10-05T08:43:26.189Z,17.80
2018-10-05T08:45:54.734Z,19.13
2018-10-05T08:48:23.160Z,15.73
2018-10-05T08:50:51.655Z,22.10
2018-10-05T08:53:20.893Z,16.73
2018-10-05T08:55:49.317Z,16.17
2018-10-05T08:58:17.780Z,17.33
2018-10-05T09:00:46.212Z,21.87
2018-10-05T09:03:14.720Z,25.63
2018-10-05T09:05:43.223Z,16.80
2018-10-05T09:08:11.655Z,18.43
2018-10-05T09:10:40.079Z,17.77
2018-10-05T09:13:08.734Z,20.83
2018-10-05T09:15:37.193Z,19.17
2018-10-05T09:18:05.677Z,21.03
2018-10-05T09:20:34.702Z,22.33
2018-10-05T09:23:03.185Z,16.83
2018-10-05T09:25:31.631Z,22.33
2018-10-05T09:28:00.151Z,16.07
2018-10-05T09:30:28.835Z,17.77
2018-10-05T09:32:57.299Z,19.03
2018-10-05T09:35:25.859Z,17.57
2018-10-05T09:37:54.327Z,19.03
2018-10-05T09:40:22.763Z,17.17
2018-10-05T09:42:51.212Z,22.60
2018-10-05T09:45:19.910Z,25.47
2018-10-05T09:47:48.318Z,22.50
2018-10-05T09:50:17.105Z,23.03
2018-10-05T09:52:45.581Z,17.97
2018-10-05T09:55:14.043Z,17.00
2018-10-05T09:57:42.483Z,18.53
2018-10-05T10:01:15.555Z,16.10
2018-10-05T10:03:43.989Z,14.17
2018-10-05T10:06:12.387Z,15.40
2018-10-05T10:08:40.811Z,17.87
2018-10-05T10:11:09.211Z,13.03
2018-10-05T10:13:37.731Z,15.47
2018-10-05T10:16:06.148Z,13.50
2018-10-05T10:18:34.654Z,13.67
2018-10-05T10:21:03.059Z,16.50
2018-10-05T10:23:31.435Z,16.13
2018-10-05T10:25:59.843Z,14.67
2018-10-05T10:28:28.413Z,11.37
2018-10-05T10:30:56.739Z,12.50
2018-10-05T10:33:25.159Z,13.10
2018-10-05T10:35:53.540Z,14.83
2018-10-05T10:38:22.010Z,14.50
2018-10-05T10:40:50.446Z,12.73
2018-10-05T10:43:18.891Z,11.40
2018-10-05T10:45:47.304Z,12.77
2018-10-05T10:48:15.845Z,14.67
2018-10-05T10:50:44.275Z,13.03
2018-10-05T10:53:12.778Z,9.70
2018-10-05T10:55:41.129Z,10.10
2018-10-05T10:58:09.612Z,11.60
2018-10-05T11:00:38.040Z,10.53
2018-10-05T11:03:06.523Z,11.03
2018-10-05T11:05:34.954Z,13.40
2018-10-05T11:08:03.370Z,9.57
2018-10-05T11:10:31.767Z,9.93
2018-10-05T11:13:00.181Z,8.03
2018-10-05T11:15:28.563Z,14.97
2018-10-05T11:17:57.218Z,11.23
2018-10-05T11:20:25.651Z,11.57
2018-10-05T11:22:54.143Z,13.13
2018-10-05T11:25:22.527Z,10.47
2018-10-05T11:27:50.943Z,15.10
2018-10-05T11:30:19.359Z,12.87
2018-10-05T11:32:47.838Z,11.90
2018-10-05T11:35:16.659Z,12.88
2018-10-05T11:37:45.094Z,12.47
2018-10-05T11:40:13.501Z,18.17
2018-10-05T11:42:41.866Z,9.85
2018-10-05T11:45:10.283Z,9.38
2018-10-05T11:47:38.703Z,11.18
2018-10-05T11:50:07.235Z,8.20
2018-10-05T11:52:35.655Z,10.30
2018-10-05T11:55:04.055Z,10.88
2018-10-05T11:57:32.474Z,17.52
2018-10-05T12:00:01.126Z,14.63
2018-10-05T12:02:29.547Z,16.55
2018-10-05T12:04:57.928Z,8.05
2018-10-05T12:07:26.294Z,6.20
2018-10-05T12:09:54.701Z,6.42
2018-10-05T12:12:23.089Z,8.48
2018-10-05T12:14:51.495Z,6.83
2018-10-05T12:17:19.914Z,8.53
2018-10-05T12:19:48.322Z,7.65
2018-10-05T12:22:16.709Z,6.05
2018-10-05T12:24:45.087Z,8.25
2018-10-05T12:27:13.507Z,6.03
2018-10-05T12:29:41.993Z,9.18
2018-10-05T12:32:10.406Z,8.03
2018-10-05T12:34:38.800Z,10.03
2018-10-05T12:37:07.296Z,9.33
2018-10-05T12:39:35.733Z,7.45
2018-10-05T12:42:04.147Z,10.55
2018-10-05T12:44:32.595Z,7.08
2018-10-05T12:47:00.995Z,5.62
2018-10-05T12:49:29.531Z,7.15
2018-10-05T12:51:57.977Z,5.53
2018-10-05T12:54:26.417Z,8.30
2018-10-05T12:56:54.870Z,8.05
2018-10-05T12:59:23.308Z,4.20
2018-10-05T13:01:51.776Z,7.03
2018-10-05T13:04:20.403Z,7.08
2018-10-05T13:06:48.901Z,6.90
2018-10-05T13:09:17.299Z,6.53
2018-10-05T13:11:45.694Z,6.17
2018-10-05T13:14:14.112Z,4.70
2018-10-05T13:16:42.751Z,5.33
2018-10-05T13:19:11.250Z,7.20
2018-10-05T13:21:39.679Z,4.03
2018-10-05T13:24:08.112Z,7.75
2018-10-05T13:26:36.543Z,4.05
2018-10-05T13:29:05.004Z,5.20
2018-10-05T13:31:33.915Z,5.10
2018-10-05T13:34:02.920Z,4.50
2018-10-05T13:36:31.438Z,4.42
2018-10-05T13:38:59.834Z,5.90
2018-10-05T13:41:28.199Z,4.83
2018-10-05T13:43:56.699Z,5.42
2018-10-05T13:46:25.532Z,5.08
2018-10-05T13:48:53.987Z,4.97
2018-10-05T13:51:22.445Z,3.02
2018-10-05T13:53:50.805Z,5.35
2018-10-05T13:56:19.265Z,6.80
2018-10-05T13:58:47.622Z,4.25
2018-10-05T14:01:16.737Z,3.72
2018-10-05T14:03:45.270Z,6.00
2018-10-05T14:06:13.651Z,3.83
2018-10-05T14:08:48.504Z,4.10
2018-10-05T14:11:16.996Z,4.37
2018-10-05T14:13:45.380Z,5.30
2018-10-05T14:16:13.757Z,5.75
2018-10-05T14:18:42.110Z,4.37
2018-10-05T14:21:10.523Z,3.42
2018-10-05T14:23:38.972Z,5.80
2018-10-05T14:26:14.152Z,4.15
2018-10-05T14:28:42.532Z,4.53
2018-10-05T14:31:10.941Z,4.60
2018-10-05T14:33:39.376Z,3.37
2018-10-05T14:36:07.927Z,4.03
2018-10-05T14:38:36.400Z,4.25
2018-10-05T14:41:04.875Z,4.25
2018-10-05T14:43:33.289Z,5.00
2018-10-05T14:46:01.883Z,4.28
2018-10-05T14:48:30.308Z,2.87
2018-10-05T14:50:58.744Z,3.85
2018-10-05T14:53:27.139Z,5.75
2018-10-05T14:55:55.599Z,5.58
2018-10-05T14:58:24.012Z,5.12
2018-10-05T15:00:52.463Z,3.65
2018-10-05T15:03:20.820Z,7.08
2018-10-05T15:05:49.278Z,11.88
2018-10-05T15:08:17.707Z,4.00
2018-10-05T15:10:46.084Z,5.55
2018-10-05T15:13:14.580Z,6.17
2018-10-05T15:15:43.041Z,4.12
2018-10-05T15:18:11.423Z,3.45
2018-10-05T15:20:39.796Z,4.65
2018-10-05T15:23:08.400Z,3.37
2018-10-05T15:25:36.782Z,7.25
2018-10-05T15:28:05.206Z,5.20
2018-10-05T15:30:33.598Z,3.37
2018-10-05T15:33:02.065Z,4.10
2018-10-05T15:35:30.581Z,3.85
2018-10-05T15:37:58.991Z,5.40
2018-10-05T15:40:27.371Z,5.80
2018-10-05T15:42:55.789Z,4.05
2018-10-05T15:45:24.201Z,5.33
2018-10-05T15:47:52.592Z,4.50
2018-10-05T15:50:20.971Z,4.62
2018-10-05T15:52:49.516Z,4.87
2018-10-05T15:55:17.912Z,4.50
2018-10-05T15:57:47.410Z,4.08
2018-10-05T16:00:15.822Z,5.42
2018-10-05T16:02:44.291Z,4.40
2018-10-05T16:05:12.678Z,5.17
2018-10-05T16:07:41.120Z,7.72
2018-10-05T16:10:09.564Z,3.70
2018-10-05T16:12:38.167Z,4.70
2018-10-05T16:15:06.596Z,4.15
2018-10-05T16:17:34.990Z,6.78
2018-10-05T16:20:03.565Z,4.33
2018-10-05T16:22:31.996Z,8.00
2018-10-05T16:25:00.448Z,6.05
2018-10-05T16:27:31.278Z,5.60
2018-10-05T16:30:01.047Z,4.60
2018-10-05T16:32:31.337Z,11.05
2018-10-05T16:35:01.256Z,11.08
2018-10-05T16:37:31.958Z,5.33
2018-10-05T16:40:01.458Z,7.00
2018-10-05T16:42:29.930Z,7.17
2018-10-05T16:44:59.513Z,7.95
2018-10-05T16:47:27.977Z,6.33
2018-10-05T16:49:56.581Z,8.28
2018-10-05T16:52:25.021Z,5.50
2018-10-05T16:54:54.114Z,7.70
2018-10-05T16:57:22.706Z,8.28
2018-10-05T16:59:51.080Z,7.10
2018-10-05T17:02:19.616Z,7.33
2018-10-05T17:04:48.149Z,6.72
2018-10-05T17:07:16.589Z,5.92
2018-10-05T17:09:45.098Z,10.60
2018-10-05T17:12:13.545Z,9.90
2018-10-05T17:14:42.004Z,10.85
2018-10-05T17:17:10.577Z,8.30
2018-10-05T17:19:39.096Z,8.20
2018-10-05T17:22:07.587Z,8.45
2018-10-05T17:24:35.997Z,6.10
2018-10-05T17:27:04.415Z,9.55
2018-10-05T17:29:32.865Z,9.28
2018-10-05T17:32:01.241Z,12.40
2018-10-05T17:34:29.707Z,11.70
2018-10-05T17:36:58.119Z,8.63
2018-10-05T17:39:26.761Z,7.20
2018-10-05T17:41:55.310Z,7.80
2018-10-05T17:44:25.170Z,9.73
2018-10-05T17:46:53.696Z,11.43
2018-10-05T17:49:22.140Z,10.93
2018-10-05T17:51:50.582Z,11.87
2018-10-05T17:54:19.113Z,9.97
2018-10-05T17:56:47.555Z,10.53
2018-10-05T17:59:16.140Z,8.80
2018-10-05T18:01:44.591Z,10.53
2018-10-05T18:04:12.978Z,10.17
2018-10-05T18:06:41.510Z,11.27
2018-10-05T18:09:10.009Z,9.73
2018-10-05T18:11:38.512Z,8.47
2018-10-05T18:14:06.974Z,8.90
2018-10-05T18:16:35.436Z,8.67
2018-10-05T18:19:04.095Z,10.07
2018-10-05T18:21:32.635Z,9.03
2018-10-05T18:24:01.207Z,8.07
2018-10-05T18:26:29.665Z,8.20
2018-10-05T18:28:58.306Z,7.63
2018-10-05T18:31:26.825Z,8.50
2018-10-05T18:33:55.337Z,9.00
2018-10-05T18:36:23.764Z,10.10
2018-10-05T18:38:52.184Z,12.63
2018-10-05T18:41:20.597Z,14.00
2018-10-05T18:43:49.100Z,13.47
2018-10-05T18:46:17.585Z,8.43
2018-10-05T18:48:46.245Z,13.10
2018-10-05T18:51:14.819Z,12.07
2018-10-05T18:53:43.144Z,12.20
2018-10-05T18:56:23.263Z,14.47
2018-10-05T18:58:51.692Z,11.10
2018-10-05T19:01:20.332Z,11.27
2018-10-05T19:03:49.326Z,10.43
2018-10-05T19:06:18.358Z,16.17
2018-10-05T19:08:46.837Z,11.63
2018-10-05T19:11:15.357Z,10.60
2018-10-05T19:13:43.854Z,12.43
2018-10-05T19:16:12.388Z,10.10
2018-10-05T19:18:40.829Z,11.17
2018-10-05T19:21:09.316Z,14.17
2018-10-05T19:23:37.877Z,11.90
2018-10-05T19:26:06.458Z,10.47
2018-10-05T19:28:34.860Z,13.40
2018-10-05T19:31:03.367Z,10.40
2018-10-05T19:33:31.886Z,15.37
2018-10-05T19:36:00.327Z,11.00
2018-10-05T19:38:28.806Z,8.93
2018-10-05T19:40:57.250Z,11.00
2018-10-05T19:43:25.630Z,11.43
2018-10-05T19:45:54.141Z,10.40
2018-10-05T19:48:22.680Z,10.30
2018-10-05T19:50:51.427Z,11.87
2018-10-05T19:53:19.897Z,15.50
2018-10-05T19:55:48.358Z,10.67
2018-10-05T19:58:16.808Z,9.27
2018-10-05T20:00:45.340Z,9.10
2018-10-05T20:03:13.974Z,10.13
2018-10-05T20:05:42.531Z,18.10
2018-10-05T20:08:10.981Z,10.70
2018-10-05T20:10:39.807Z,9.97
2018-10-05T20:13:08.380Z,10.43
2018-10-05T20:15:36.831Z,9.93
2018-10-05T20:18:06.878Z,12.17
2018-10-05T20:20:35.281Z,14.70
2018-10-05T20:23:05.274Z,16.63
2018-10-05T20:25:33.757Z,22.87
2018-10-05T20:28:02.813Z,21.20
2018-10-05T20:30:31.248Z,17.40
2018-10-05T20:32:59.703Z,19.90
2018-10-05T20:35:28.174Z,16.80
2018-10-05T20:37:56.625Z,21.47
2018-10-05T20:40:25.002Z,13.20
2018-10-05T20:42:53.394Z,14.80
2018-10-05T20:45:21.822Z,15.93
2018-10-05T20:47:50.221Z,15.87
2018-10-05T20:50:18.676Z,15.77
2018-10-05T20:52:47.099Z,14.80
2018-10-05T20:55:15.488Z,20.83
2018-10-05T20:57:43.903Z,19.13
2018-10-05T21:00:12.287Z,20.73
2018-10-05T21:02:40.745Z,20.33
2018-10-05T21:05:10.040Z,21.10
2018-10-05T21:07:38.527Z,16.20
2018-10-05T21:10:07.362Z,13.80
2018-10-05T21:12:36.239Z,15.43
2018-10-05T21:15:05.075Z,16.27
2018-10-05T21:17:40.242Z,14.60
2018-10-05T21:20:09.182Z,15.47
2018-10-05T21:22:37.701Z,13.97
2018-10-05T21:25:06.631Z,13.90
2018-10-05T21:27:35.067Z,12.37
2018-10-05T21:30:03.692Z,13.87
2018-10-05T21:32:32.136Z,11.07
2018-10-05T21:35:00.582Z,12.30
2018-10-05T21:37:29.023Z,12.23
2018-10-05T21:39:57.472Z,10.90
2018-10-05T21:42:25.848Z,10.37
2018-10-05T21:44:54.253Z,10.30
2018-10-05T21:47:22.682Z,12.60
2018-10-05T21:49:51.092Z,12.43
2018-10-05T21:52:19.522Z,13.17
2018-10-05T21:54:47.902Z,13.37
2018-10-05T21:57:16.303Z,9.23
2018-10-05T21:59:44.673Z,12.93
2018-10-05T22:02:13.049Z,12.60
2018-10-05T22:04:41.433Z,12.03
2018-10-05T22:07:09.789Z,11.70
2018-10-05T22:09:38.163Z,11.60
2018-10-05T22:12:06.535Z,15.50
2018-10-05T22:14:34.955Z,13.07
2018-10-05T22:17:03.303Z,10.53
2018-10-05T22:19:31.732Z,14.03
2018-10-05T22:22:00.170Z,12.67
2018-10-05T22:24:28.568Z,14.87
2018-10-05T22:26:56.943Z,13.50
2018-10-05T22:29:25.327Z,12.53
2018-10-05T22:31:53.668Z,14.47
2018-10-05T22:34:22.026Z,25.40
2018-10-05T22:36:50.382Z,13.60
2018-10-05T22:39:18.759Z,15.80
2018-10-05T22:41:47.083Z,11.07
2018-10-05T22:44:15.439Z,9.73
2018-10-05T22:46:43.776Z,11.47
2018-10-05T22:49:12.123Z,11.50
2018-10-05T22:51:40.504Z,11.33
2018-10-05T22:54:08.877Z,11.63
2018-10-05T22:56:37.237Z,12.33
2018-10-05T22:59:05.608Z,11.50
2018-10-05T23:01:33.967Z,10.70
2018-10-05T23:04:02.323Z,12.93
2018-10-05T23:06:30.679Z,13.17
2018-10-05T23:08:59.028Z,10.17
2018-10-05T23:11:27.645Z,14.53
2018-10-05T23:13:56.048Z,9.40
2018-10-05T23:16:24.428Z,10.67
2018-10-05T23:18:52.765Z,13.07
2018-10-05T23:21:21.195Z,11.13
2018-10-05T23:23:49.576Z,10.33
2018-10-05T23:26:17.970Z,11.67
2018-10-05T23:28:46.330Z,11.50
2018-10-05T23:31:14.711Z,11.03
2018-10-05T23:33:43.099Z,12.73
2018-10-05T23:36:11.500Z,12.03
2018-10-05T23:38:39.853Z,10.43
2018-10-05T23:41:08.243Z,11.70
2018-10-05T23:43:36.596Z,10.67
2018-10-05T23:46:04.966Z,10.60
2018-10-05T23:48:33.326Z,9.87
2018-10-05T23:51:01.701Z,11.63
2018-10-05T23:53:30.047Z,10.00
2018-10-05T23:55:58.426Z,9.63
2018-10-05T23:58:26.843Z,9.93
